sensor_id;sensor_type;location;lat;lon;timestamp;temperature;humidity
13817;DHT22;6979;52.116;5.286;2023-12-29T00:00:36;14.10;99.90
13817;DHT22;6979;52.116;5.286;2023-12-29T00:03:04;14.10;99.90
13817;DHT22;6979;52.116;5.286;2023-12-29T00:05:32;14.20;99.90
13817;DHT22;6979;52.116;5.286;2023-12-29T00:07:59;14.20;99.90
13817;DHT22;6979;52.116;5.286;2023-12-29T00:10:30;14.20;99.90
13817;DHT22;6979;52.116;5.286;2023-12-29T00:13:02;14.30;99.90
13817;DHT22;6979;52.116;5.286;2023-12-29T00:15:29;14.30;99.90
13817;DHT22;6979;52.116;5.286;2023-12-29T00:17:56;14.30;99.90
13817;DHT22;6979;52.116;5.286;2023-12-29T00:20:25;14.20;99.90
13817;DHT22;6979;52.116;5.286;2023-12-29T00:22:56;14.20;99.90
13817;DHT22;6979;52.116;5.286;2023-12-29T00:25:24;14.20;99.90
13817;DHT22;6979;52.116;5.286;2023-12-29T00:27:51;14.10;99.90
13817;DHT22;6979;52.116;5.286;2023-12-29T00:30:18;14.00;99.90
13817;DHT22;6979;52.116;5.286;2023-12-29T00:32:46;14.00;99.90
13817;DHT22;6979;52.116;5.286;2023-12-29T00:35:13;13.90;99.90
13817;DHT22;6979;52.116;5.286;2023-12-29T00:37:40;13.80;99.90
13817;DHT22;6979;52.116;5.286;2023-12-29T00:40:10;13.80;99.90
13817;DHT22;6979;52.116;5.286;2023-12-29T00:42:38;13.80;99.90
13817;DHT22;6979;52.116;5.286;2023-12-29T00:45:19;13.70;99.90
13817;DHT22;6979;52.116;5.286;2023-12-29T00:47:47;13.70;99.90
13817;DHT22;6979;52.116;5.286;2023-12-29T00:50:16;13.80;99.90
13817;DHT22;6979;52.116;5.286;2023-12-29T00:52:43;13.70;99.90
13817;DHT22;6979;52.116;5.286;2023-12-29T00:55:12;13.80;99.90
13817;DHT22;6979;52.116;5.286;2023-12-29T00:57:41;13.80;99.90
13817;DHT22;6979;52.116;5.286;2023-12-29T01:00:11;13.80;99.90
13817;DHT22;6979;52.116;5.286;2023-12-29T01:02:38;13.90;99.90
13817;DHT22;6979;52.116;5.286;2023-12-29T01:05:11;13.90;99.90
13817;DHT22;6979;52.116;5.286;2023-12-29T01:07:41;13.90;99.90
13817;DHT22;6979;52.116;5.286;2023-12-29T01:10:08;14.00;99.90
13817;DHT22;6979;52.116;5.286;2023-12-29T01:12:38;14.00;99.90
13817;DHT22;6979;52.116;5.286;2023-12-29T01:15:06;14.00;99.90
13817;DHT22;6979;52.116;5.286;2023-12-29T01:17:33;14.00;99.90
13817;DHT22;6979;52.116;5.286;2023-12-29T01:20:00;14.10;99.90
13817;DHT22;6979;52.116;5.286;2023-12-29T01:22:32;14.20;99.90
13817;DHT22;6979;52.116;5.286;2023-12-29T01:25:00;14.20;99.90
13817;DHT22;6979;52.116;5.286;2023-12-29T01:27:35;14.30;99.90
13817;DHT22;6979;52.116;5.286;2023-12-29T01:30:07;14.30;99.90
13817;DHT22;6979;52.116;5.286;2023-12-29T01:32:37;14.30;99.90
13817;DHT22;6979;52.116;5.286;2023-12-29T01:35:04;14.30;99.90
13817;DHT22;6979;52.116;5.286;2023-12-29T01:37:31;14.30;99.90
13817;DHT22;6979;52.116;5.286;2023-12-29T01:39:59;14.30;99.90
13817;DHT22;6979;52.116;5.286;2023-12-29T01:42:25;14.30;99.90
13817;DHT22;6979;52.116;5.286;2023-12-29T01:45:04;14.30;99.90
13817;DHT22;6979;52.116;5.286;2023-12-29T01:47:36;14.40;99.90
13817;DHT22;6979;52.116;5.286;2023-12-29T01:50:03;14.40;99.90
13817;DHT22;6979;52.116;5.286;2023-12-29T01:52:30;14.40;99.90
13817;DHT22;6979;52.116;5.286;2023-12-29T01:54:57;14.40;99.90
13817;DHT22;6979;52.116;5.286;2023-12-29T01:57:30;14.40;99.90
13817;DHT22;6979;52.116;5.286;2023-12-29T02:00:00;14.40;99.90
13817;DHT22;6979;52.116;5.286;2023-12-29T02:02:39;14.40;99.90
13817;DHT22;6979;52.116;5.286;2023-12-29T02:05:13;14.40;99.90
13817;DHT22;6979;52.116;5.286;2023-12-29T02:07:41;14.40;99.90
13817;DHT22;6979;52.116;5.286;2023-12-29T02:10:08;14.30;99.90
13817;DHT22;6979;52.116;5.286;2023-12-29T02:12:35;14.30;99.90
13817;DHT22;6979;52.116;5.286;2023-12-29T02:15:04;14.30;99.90
13817;DHT22;6979;52.116;5.286;2023-12-29T02:17:36;14.30;99.90
13817;DHT22;6979;52.116;5.286;2023-12-29T02:20:07;14.30;99.90
13817;DHT22;6979;52.116;5.286;2023-12-29T02:22:34;14.30;99.90
13817;DHT22;6979;52.116;5.286;2023-12-29T02:25:04;14.30;99.90
13817;DHT22;6979;52.116;5.286;2023-12-29T02:27:41;14.30;99.90
13817;DHT22;6979;52.116;5.286;2023-12-29T02:30:13;14.30;99.90
13817;DHT22;6979;52.116;5.286;2023-12-29T02:32:49;14.30;99.90
13817;DHT22;6979;52.116;5.286;2023-12-29T02:35:23;14.30;99.90
13817;DHT22;6979;52.116;5.286;2023-12-29T02:37:53;14.30;99.90
13817;DHT22;6979;52.116;5.286;2023-12-29T02:40:23;14.30;99.90
13817;DHT22;6979;52.116;5.286;2023-12-29T02:42:54;14.20;99.90
13817;DHT22;6979;52.116;5.286;2023-12-29T02:46:18;14.20;99.90
13817;DHT22;6979;52.116;5.286;2023-12-29T02:48:54;14.20;99.90
13817;DHT22;6979;52.116;5.286;2023-12-29T02:51:21;14.20;99.90
13817;DHT22;6979;52.116;5.286;2023-12-29T02:53:52;14.20;99.90
13817;DHT22;6979;52.116;5.286;2023-12-29T02:57:15;14.20;99.90
13817;DHT22;6979;52.116;5.286;2023-12-29T02:59:51;14.10;99.90
13817;DHT22;6979;52.116;5.286;2023-12-29T03:02:18;14.10;99.90
13817;DHT22;6979;52.116;5.286;2023-12-29T03:04:45;14.10;99.90
13817;DHT22;6979;52.116;5.286;2023-12-29T03:07:15;14.00;99.90
13817;DHT22;6979;52.116;5.286;2023-12-29T03:09:43;14.00;99.90
13817;DHT22;6979;52.116;5.286;2023-12-29T03:12:11;14.00;99.90
13817;DHT22;6979;52.116;5.286;2023-12-29T03:14:40;14.00;99.90
13817;DHT22;6979;52.116;5.286;2023-12-29T03:17:07;14.00;99.90
13817;DHT22;6979;52.116;5.286;2023-12-29T03:19:37;14.00;99.90
13817;DHT22;6979;52.116;5.286;2023-12-29T03:22:24;14.00;99.90
13817;DHT22;6979;52.116;5.286;2023-12-29T03:24:52;13.90;99.90
13817;DHT22;6979;52.116;5.286;2023-12-29T03:27:20;14.00;99.90
13817;DHT22;6979;52.116;5.286;2023-12-29T03:29:50;14.00;99.90
13817;DHT22;6979;52.116;5.286;2023-12-29T03:32:17;13.90;99.90
13817;DHT22;6979;52.116;5.286;2023-12-29T03:34:46;13.90;99.90
13817;DHT22;6979;52.116;5.286;2023-12-29T03:37:13;13.90;99.90
13817;DHT22;6979;52.116;5.286;2023-12-29T03:39:43;13.90;99.90
13817;DHT22;6979;52.116;5.286;2023-12-29T03:42:23;13.90;99.90
13817;DHT22;6979;52.116;5.286;2023-12-29T03:44:52;13.90;99.90
13817;DHT22;6979;52.116;5.286;2023-12-29T03:47:21;13.90;99.90
13817;DHT22;6979;52.116;5.286;2023-12-29T03:49:48;14.00;99.90
13817;DHT22;6979;52.116;5.286;2023-12-29T03:52:18;14.00;99.90
13817;DHT22;6979;52.116;5.286;2023-12-29T03:54:47;14.00;99.90
13817;DHT22;6979;52.116;5.286;2023-12-29T03:58:09;14.00;99.90
13817;DHT22;6979;52.116;5.286;2023-12-29T04:00:36;14.00;99.90
13817;DHT22;6979;52.116;5.286;2023-12-29T04:03:06;14.00;99.90
13817;DHT22;6979;52.116;5.286;2023-12-29T04:05:35;14.00;99.90
13817;DHT22;6979;52.116;5.286;2023-12-29T04:08:03;14.00;99.90
13817;DHT22;6979;52.116;5.286;2023-12-29T04:10:29;13.90;99.90
13817;DHT22;6979;52.116;5.286;2023-12-29T04:12:58;13.90;99.90
13817;DHT22;6979;52.116;5.286;2023-12-29T04:15:26;13.90;99.90
13817;DHT22;6979;52.116;5.286;2023-12-29T04:17:53;13.90;99.90
13817;DHT22;6979;52.116;5.286;2023-12-29T04:20:20;13.80;99.90
13817;DHT22;6979;52.116;5.286;2023-12-29T04:22:47;13.90;99.90
13817;DHT22;6979;52.116;5.286;2023-12-29T04:25:14;13.80;99.90
13817;DHT22;6979;52.116;5.286;2023-12-29T04:27:41;13.80;99.90
13817;DHT22;6979;52.116;5.286;2023-12-29T04:30:08;13.80;99.90
13817;DHT22;6979;52.116;5.286;2023-12-29T04:32:36;13.80;99.90
13817;DHT22;6979;52.116;5.286;2023-12-29T04:35:08;13.80;99.90
13817;DHT22;6979;52.116;5.286;2023-12-29T04:37:37;13.80;99.90
13817;DHT22;6979;52.116;5.286;2023-12-29T04:40:05;13.80;99.90
13817;DHT22;6979;52.116;5.286;2023-12-29T04:42:32;13.80;99.90
13817;DHT22;6979;52.116;5.286;2023-12-29T04:45:02;13.80;99.90
13817;DHT22;6979;52.116;5.286;2023-12-29T04:47:29;13.80;99.90
13817;DHT22;6979;52.116;5.286;2023-12-29T04:49:58;13.80;99.90
13817;DHT22;6979;52.116;5.286;2023-12-29T04:52:25;13.80;99.90
13817;DHT22;6979;52.116;5.286;2023-12-29T04:54:53;13.90;99.90
13817;DHT22;6979;52.116;5.286;2023-12-29T04:57:20;13.90;99.90
13817;DHT22;6979;52.116;5.286;2023-12-29T04:59:47;13.90;99.90
13817;DHT22;6979;52.116;5.286;2023-12-29T05:02:16;13.90;99.90
13817;DHT22;6979;52.116;5.286;2023-12-29T05:04:45;14.00;99.90
13817;DHT22;6979;52.116;5.286;2023-12-29T05:07:23;14.00;99.90
13817;DHT22;6979;52.116;5.286;2023-12-29T05:09:50;14.00;99.90
13817;DHT22;6979;52.116;5.286;2023-12-29T05:12:19;14.00;99.90
13817;DHT22;6979;52.116;5.286;2023-12-29T05:14:46;14.10;99.90
13817;DHT22;6979;52.116;5.286;2023-12-29T05:17:17;14.00;99.90
13817;DHT22;6979;52.116;5.286;2023-12-29T05:19:44;14.00;99.90
13817;DHT22;6979;52.116;5.286;2023-12-29T05:22:10;14.00;99.90
13817;DHT22;6979;52.116;5.286;2023-12-29T05:24:44;14.10;99.90
13817;DHT22;6979;52.116;5.286;2023-12-29T05:27:12;14.10;99.90
13817;DHT22;6979;52.116;5.286;2023-12-29T05:29:41;14.10;99.90
13817;DHT22;6979;52.116;5.286;2023-12-29T05:32:09;14.10;99.90
13817;DHT22;6979;52.116;5.286;2023-12-29T05:34:36;14.10;99.90
13817;DHT22;6979;52.116;5.286;2023-12-29T05:37:03;14.10;99.90
13817;DHT22;6979;52.116;5.286;2023-12-29T05:39:30;14.10;99.90
13817;DHT22;6979;52.116;5.286;2023-12-29T05:42:00;14.10;99.90
13817;DHT22;6979;52.116;5.286;2023-12-29T05:44:27;14.10;99.90
13817;DHT22;6979;52.116;5.286;2023-12-29T05:46:54;14.20;99.90
13817;DHT22;6979;52.116;5.286;2023-12-29T05:49:24;14.10;99.90
13817;DHT22;6979;52.116;5.286;2023-12-29T05:51:54;14.20;99.90
13817;DHT22;6979;52.116;5.286;2023-12-29T05:54:21;14.10;99.90
13817;DHT22;6979;52.116;5.286;2023-12-29T05:56:48;14.10;99.90
13817;DHT22;6979;52.116;5.286;2023-12-29T05:59:16;14.10;99.90
13817;DHT22;6979;52.116;5.286;2023-12-29T06:01:43;14.10;99.90
13817;DHT22;6979;52.116;5.286;2023-12-29T06:04:10;14.10;99.90
13817;DHT22;6979;52.116;5.286;2023-12-29T06:06:37;14.10;99.90
13817;DHT22;6979;52.116;5.286;2023-12-29T06:09:04;14.10;99.90
13817;DHT22;6979;52.116;5.286;2023-12-29T06:11:31;14.10;99.90
13817;DHT22;6979;52.116;5.286;2023-12-29T06:13:58;14.10;99.90
13817;DHT22;6979;52.116;5.286;2023-12-29T06:16:27;14.10;99.90
13817;DHT22;6979;52.116;5.286;2023-12-29T06:18:55;14.10;99.90
13817;DHT22;6979;52.116;5.286;2023-12-29T06:21:22;14.10;99.90
13817;DHT22;6979;52.116;5.286;2023-12-29T06:23:49;14.20;99.90
13817;DHT22;6979;52.116;5.286;2023-12-29T06:26:16;14.20;99.90
13817;DHT22;6979;52.116;5.286;2023-12-29T06:28:44;14.10;99.90
13817;DHT22;6979;52.116;5.286;2023-12-29T06:31:11;14.20;99.90
13817;DHT22;6979;52.116;5.286;2023-12-29T06:33:42;14.20;99.90
13817;DHT22;6979;52.116;5.286;2023-12-29T06:36:09;14.20;99.90
13817;DHT22;6979;52.116;5.286;2023-12-29T06:38:36;14.20;99.90
13817;DHT22;6979;52.116;5.286;2023-12-29T06:41:04;14.20;99.90
13817;DHT22;6979;52.116;5.286;2023-12-29T06:43:33;14.20;99.90
13817;DHT22;6979;52.116;5.286;2023-12-29T06:46:00;14.20;99.90
13817;DHT22;6979;52.116;5.286;2023-12-29T06:48:27;14.20;99.90
13817;DHT22;6979;52.116;5.286;2023-12-29T06:50:56;14.30;99.90
13817;DHT22;6979;52.116;5.286;2023-12-29T06:53:23;14.30;99.90
13817;DHT22;6979;52.116;5.286;2023-12-29T06:55:50;14.30;99.90
13817;DHT22;6979;52.116;5.286;2023-12-29T06:58:17;14.30;99.90
13817;DHT22;6979;52.116;5.286;2023-12-29T07:00:44;14.20;99.90
13817;DHT22;6979;52.116;5.286;2023-12-29T07:03:13;14.30;99.90
13817;DHT22;6979;52.116;5.286;2023-12-29T07:05:40;14.30;99.90
13817;DHT22;6979;52.116;5.286;2023-12-29T07:08:12;14.20;99.90
13817;DHT22;6979;52.116;5.286;2023-12-29T07:10:39;14.20;99.90
13817;DHT22;6979;52.116;5.286;2023-12-29T07:13:09;14.20;99.90
13817;DHT22;6979;52.116;5.286;2023-12-29T07:15:51;14.20;99.90
13817;DHT22;6979;52.116;5.286;2023-12-29T07:18:18;14.20;99.90
13817;DHT22;6979;52.116;5.286;2023-12-29T07:20:45;14.20;99.90
13817;DHT22;6979;52.116;5.286;2023-12-29T07:23:13;14.20;99.90
13817;DHT22;6979;52.116;5.286;2023-12-29T07:25:40;14.20;99.90
13817;DHT22;6979;52.116;5.286;2023-12-29T07:28:08;14.20;99.90
13817;DHT22;6979;52.116;5.286;2023-12-29T07:30:36;14.20;99.90
13817;DHT22;6979;52.116;5.286;2023-12-29T07:33:04;14.20;99.90
13817;DHT22;6979;52.116;5.286;2023-12-29T07:35:32;14.20;99.90
13817;DHT22;6979;52.116;5.286;2023-12-29T07:37:59;14.20;99.90
13817;DHT22;6979;52.116;5.286;2023-12-29T07:40:28;14.20;99.90
13817;DHT22;6979;52.116;5.286;2023-12-29T07:42:55;14.20;99.90
13817;DHT22;6979;52.116;5.286;2023-12-29T07:45:22;14.20;99.90
13817;DHT22;6979;52.116;5.286;2023-12-29T07:47:50;14.20;99.90
13817;DHT22;6979;52.116;5.286;2023-12-29T07:50:17;14.10;99.90
13817;DHT22;6979;52.116;5.286;2023-12-29T07:52:47;14.10;99.90
13817;DHT22;6979;52.116;5.286;2023-12-29T07:55:14;14.10;99.90
13817;DHT22;6979;52.116;5.286;2023-12-29T07:57:43;14.10;99.90
13817;DHT22;6979;52.116;5.286;2023-12-29T08:00:14;14.10;99.90
13817;DHT22;6979;52.116;5.286;2023-12-29T08:02:44;14.10;99.90
13817;DHT22;6979;52.116;5.286;2023-12-29T08:05:11;14.10;99.90
13817;DHT22;6979;52.116;5.286;2023-12-29T08:07:38;14.10;99.90
13817;DHT22;6979;52.116;5.286;2023-12-29T08:10:06;14.00;99.90
13817;DHT22;6979;52.116;5.286;2023-12-29T08:12:33;14.10;99.90
13817;DHT22;6979;52.116;5.286;2023-12-29T08:15:03;14.10;99.90
13817;DHT22;6979;52.116;5.286;2023-12-29T08:17:32;14.10;99.90
13817;DHT22;6979;52.116;5.286;2023-12-29T08:19:59;14.10;99.90
13817;DHT22;6979;52.116;5.286;2023-12-29T08:22:30;14.10;99.90
13817;DHT22;6979;52.116;5.286;2023-12-29T08:24:57;14.20;99.90
13817;DHT22;6979;52.116;5.286;2023-12-29T08:27:25;14.20;99.90
13817;DHT22;6979;52.116;5.286;2023-12-29T08:29:52;14.20;99.90
13817;DHT22;6979;52.116;5.286;2023-12-29T08:32:20;14.20;99.90
13817;DHT22;6979;52.116;5.286;2023-12-29T08:34:48;14.20;99.90
13817;DHT22;6979;52.116;5.286;2023-12-29T08:37:14;14.20;99.90
13817;DHT22;6979;52.116;5.286;2023-12-29T08:39:47;14.20;99.90
13817;DHT22;6979;52.116;5.286;2023-12-29T08:42:16;14.20;99.90
13817;DHT22;6979;52.116;5.286;2023-12-29T08:44:46;14.20;99.90
13817;DHT22;6979;52.116;5.286;2023-12-29T08:47:13;14.20;99.90
13817;DHT22;6979;52.116;5.286;2023-12-29T08:49:41;14.30;99.90
13817;DHT22;6979;52.116;5.286;2023-12-29T08:52:08;14.30;99.90
13817;DHT22;6979;52.116;5.286;2023-12-29T08:54:35;14.20;99.90
13817;DHT22;6979;52.116;5.286;2023-12-29T08:57:03;14.20;99.90
13817;DHT22;6979;52.116;5.286;2023-12-29T08:59:30;14.30;99.90
13817;DHT22;6979;52.116;5.286;2023-12-29T09:01:57;14.20;99.90
13817;DHT22;6979;52.116;5.286;2023-12-29T09:04:24;14.20;99.90
13817;DHT22;6979;52.116;5.286;2023-12-29T09:06:52;14.10;99.90
13817;DHT22;6979;52.116;5.286;2023-12-29T09:09:19;14.00;99.90
13817;DHT22;6979;52.116;5.286;2023-12-29T09:11:46;14.00;99.90
13817;DHT22;6979;52.116;5.286;2023-12-29T09:14:13;14.00;99.90
13817;DHT22;6979;52.116;5.286;2023-12-29T09:16:41;14.00;99.90
13817;DHT22;6979;52.116;5.286;2023-12-29T09:19:08;13.90;99.90
13817;DHT22;6979;52.116;5.286;2023-12-29T09:21:34;13.90;99.90
13817;DHT22;6979;52.116;5.286;2023-12-29T09:24:03;13.90;99.90
13817;DHT22;6979;52.116;5.286;2023-12-29T09:26:31;13.90;99.90
13817;DHT22;6979;52.116;5.286;2023-12-29T09:28:59;13.90;99.90
13817;DHT22;6979;52.116;5.286;2023-12-29T09:31:26;13.90;99.90
13817;DHT22;6979;52.116;5.286;2023-12-29T09:33:52;14.00;99.90
13817;DHT22;6979;52.116;5.286;2023-12-29T09:36:19;14.00;99.90
13817;DHT22;6979;52.116;5.286;2023-12-29T09:38:46;14.10;99.90
13817;DHT22;6979;52.116;5.286;2023-12-29T09:41:15;14.10;99.90
13817;DHT22;6979;52.116;5.286;2023-12-29T09:43:44;14.10;99.90
13817;DHT22;6979;52.116;5.286;2023-12-29T09:46:16;14.10;99.90
13817;DHT22;6979;52.116;5.286;2023-12-29T09:48:45;14.20;99.90
13817;DHT22;6979;52.116;5.286;2023-12-29T09:51:16;14.20;99.90
13817;DHT22;6979;52.116;5.286;2023-12-29T09:53:48;14.30;99.90
13817;DHT22;6979;52.116;5.286;2023-12-29T09:56:16;14.30;99.90
13817;DHT22;6979;52.116;5.286;2023-12-29T09:58:46;14.40;99.90
13817;DHT22;6979;52.116;5.286;2023-12-29T10:01:17;14.40;99.90
13817;DHT22;6979;52.116;5.286;2023-12-29T10:03:46;14.50;99.90
13817;DHT22;6979;52.116;5.286;2023-12-29T10:06:16;14.50;99.90
13817;DHT22;6979;52.116;5.286;2023-12-29T10:08:47;14.50;99.90
13817;DHT22;6979;52.116;5.286;2023-12-29T10:11:19;14.50;99.90
13817;DHT22;6979;52.116;5.286;2023-12-29T10:13:49;14.50;99.90
13817;DHT22;6979;52.116;5.286;2023-12-29T10:16:24;14.50;99.90
13817;DHT22;6979;52.116;5.286;2023-12-29T10:18:59;14.60;99.90
13817;DHT22;6979;52.116;5.286;2023-12-29T10:21:36;14.60;99.90
13817;DHT22;6979;52.116;5.286;2023-12-29T10:24:10;14.60;99.90
13817;DHT22;6979;52.116;5.286;2023-12-29T10:26:41;14.70;99.90
13817;DHT22;6979;52.116;5.286;2023-12-29T10:29:09;14.70;99.90
13817;DHT22;6979;52.116;5.286;2023-12-29T10:31:37;14.70;99.90
13817;DHT22;6979;52.116;5.286;2023-12-29T10:34:20;14.80;99.90
13817;DHT22;6979;52.116;5.286;2023-12-29T10:36:54;14.80;99.90
13817;DHT22;6979;52.116;5.286;2023-12-29T10:39:21;14.80;99.90
13817;DHT22;6979;52.116;5.286;2023-12-29T10:41:49;14.80;99.90
13817;DHT22;6979;52.116;5.286;2023-12-29T10:44:16;14.90;99.90
13817;DHT22;6979;52.116;5.286;2023-12-29T10:46:43;14.90;99.90
13817;DHT22;6979;52.116;5.286;2023-12-29T10:49:13;15.00;99.90
13817;DHT22;6979;52.116;5.286;2023-12-29T10:51:40;15.00;99.90
13817;DHT22;6979;52.116;5.286;2023-12-29T10:54:07;15.00;99.90
13817;DHT22;6979;52.116;5.286;2023-12-29T10:56:34;15.10;99.90
13817;DHT22;6979;52.116;5.286;2023-12-29T10:59:03;15.10;99.90
13817;DHT22;6979;52.116;5.286;2023-12-29T11:01:31;15.10;99.90
13817;DHT22;6979;52.116;5.286;2023-12-29T11:03:59;15.00;99.90
13817;DHT22;6979;52.116;5.286;2023-12-29T11:06:27;15.00;99.90
13817;DHT22;6979;52.116;5.286;2023-12-29T11:08:54;15.00;99.90
13817;DHT22;6979;52.116;5.286;2023-12-29T11:11:21;15.00;99.90
13817;DHT22;6979;52.116;5.286;2023-12-29T11:13:48;15.00;99.90
13817;DHT22;6979;52.116;5.286;2023-12-29T11:16:18;14.90;99.90
13817;DHT22;6979;52.116;5.286;2023-12-29T11:18:47;14.90;99.90
13817;DHT22;6979;52.116;5.286;2023-12-29T11:21:16;14.90;99.90
13817;DHT22;6979;52.116;5.286;2023-12-29T11:23:44;14.90;99.90
13817;DHT22;6979;52.116;5.286;2023-12-29T11:26:11;15.00;99.90
13817;DHT22;6979;52.116;5.286;2023-12-29T11:28:39;15.00;99.90
13817;DHT22;6979;52.116;5.286;2023-12-29T11:31:06;15.10;99.90
13817;DHT22;6979;52.116;5.286;2023-12-29T11:33:41;15.10;99.90
13817;DHT22;6979;52.116;5.286;2023-12-29T11:36:13;15.20;99.90
13817;DHT22;6979;52.116;5.286;2023-12-29T11:38:48;15.30;99.90
13817;DHT22;6979;52.116;5.286;2023-12-29T11:41:24;15.40;99.90
13817;DHT22;6979;52.116;5.286;2023-12-29T11:43:59;15.40;99.90
13817;DHT22;6979;52.116;5.286;2023-12-29T11:46:39;15.50;99.90
13817;DHT22;6979;52.116;5.286;2023-12-29T11:49:10;15.50;99.90
13817;DHT22;6979;52.116;5.286;2023-12-29T11:51:39;15.50;99.90
13817;DHT22;6979;52.116;5.286;2023-12-29T11:54:07;15.50;99.90
13817;DHT22;6979;52.116;5.286;2023-12-29T11:56:34;15.50;99.90
13817;DHT22;6979;52.116;5.286;2023-12-29T11:59:17;15.50;99.90
13817;DHT22;6979;52.116;5.286;2023-12-29T12:01:47;15.50;99.90
13817;DHT22;6979;52.116;5.286;2023-12-29T12:04:35;15.50;99.90
13817;DHT22;6979;52.116;5.286;2023-12-29T12:07:03;15.60;99.90
13817;DHT22;6979;52.116;5.286;2023-12-29T12:09:30;15.60;99.90
13817;DHT22;6979;52.116;5.286;2023-12-29T12:12:00;15.60;99.90
13817;DHT22;6979;52.116;5.286;2023-12-29T12:14:48;15.60;99.90
13817;DHT22;6979;52.116;5.286;2023-12-29T12:17:28;15.60;99.90
13817;DHT22;6979;52.116;5.286;2023-12-29T12:20:00;15.60;99.90
13817;DHT22;6979;52.116;5.286;2023-12-29T12:22:30;15.60;99.90
13817;DHT22;6979;52.116;5.286;2023-12-29T12:24:58;15.60;99.90
13817;DHT22;6979;52.116;5.286;2023-12-29T12:27:26;15.60;99.90
13817;DHT22;6979;52.116;5.286;2023-12-29T12:29:57;15.60;99.90
13817;DHT22;6979;52.116;5.286;2023-12-29T12:32:26;15.60;99.90
13817;DHT22;6979;52.116;5.286;2023-12-29T12:34:55;15.60;99.90
13817;DHT22;6979;52.116;5.286;2023-12-29T12:37:25;15.60;99.90
13817;DHT22;6979;52.116;5.286;2023-12-29T12:39:52;15.70;99.90
13817;DHT22;6979;52.116;5.286;2023-12-29T12:42:23;15.70;99.90
13817;DHT22;6979;52.116;5.286;2023-12-29T12:44:56;15.70;99.90
13817;DHT22;6979;52.116;5.286;2023-12-29T12:47:27;15.70;99.90
13817;DHT22;6979;52.116;5.286;2023-12-29T12:49:59;15.70;99.90
13817;DHT22;6979;52.116;5.286;2023-12-29T12:52:36;15.70;99.90
13817;DHT22;6979;52.116;5.286;2023-12-29T12:55:04;15.80;99.90
13817;DHT22;6979;52.116;5.286;2023-12-29T12:57:32;15.80;99.90
13817;DHT22;6979;52.116;5.286;2023-12-29T13:00:03;15.80;99.90
13817;DHT22;6979;52.116;5.286;2023-12-29T13:02:32;15.90;99.90
13817;DHT22;6979;52.116;5.286;2023-12-29T13:04:59;15.90;99.90
13817;DHT22;6979;52.116;5.286;2023-12-29T13:07:31;16.00;99.90
13817;DHT22;6979;52.116;5.286;2023-12-29T13:09:59;16.00;99.90
13817;DHT22;6979;52.116;5.286;2023-12-29T13:12:29;16.00;99.90
13817;DHT22;6979;52.116;5.286;2023-12-29T13:15:05;16.00;99.90
13817;DHT22;6979;52.116;5.286;2023-12-29T13:17:33;16.10;99.90
13817;DHT22;6979;52.116;5.286;2023-12-29T13:20:00;16.00;99.90
13817;DHT22;6979;52.116;5.286;2023-12-29T13:22:28;16.00;99.90
13817;DHT22;6979;52.116;5.286;2023-12-29T13:24:55;16.00;99.90
13817;DHT22;6979;52.116;5.286;2023-12-29T13:27:26;16.00;99.90
13817;DHT22;6979;52.116;5.286;2023-12-29T13:29:53;16.00;99.90
13817;DHT22;6979;52.116;5.286;2023-12-29T13:32:22;16.00;99.90
13817;DHT22;6979;52.116;5.286;2023-12-29T13:34:56;15.90;99.90
13817;DHT22;6979;52.116;5.286;2023-12-29T13:37:33;15.90;99.90
13817;DHT22;6979;52.116;5.286;2023-12-29T13:40:10;15.90;99.90
13817;DHT22;6979;52.116;5.286;2023-12-29T13:42:41;15.80;99.90
13817;DHT22;6979;52.116;5.286;2023-12-29T13:45:11;15.80;99.90
13817;DHT22;6979;52.116;5.286;2023-12-29T13:47:39;15.80;99.90
13817;DHT22;6979;52.116;5.286;2023-12-29T13:50:09;15.80;99.90
13817;DHT22;6979;52.116;5.286;2023-12-29T13:52:37;15.70;99.90
13817;DHT22;6979;52.116;5.286;2023-12-29T13:55:07;15.70;99.90
13817;DHT22;6979;52.116;5.286;2023-12-29T13:57:34;15.70;99.90
13817;DHT22;6979;52.116;5.286;2023-12-29T14:00:19;15.70;99.90
13817;DHT22;6979;52.116;5.286;2023-12-29T14:02:48;15.70;99.90
13817;DHT22;6979;52.116;5.286;2023-12-29T14:05:27;15.70;99.90
13817;DHT22;6979;52.116;5.286;2023-12-29T14:08:00;15.70;99.90
13817;DHT22;6979;52.116;5.286;2023-12-29T14:10:31;15.60;99.90
13817;DHT22;6979;52.116;5.286;2023-12-29T14:13:05;15.60;99.90
13817;DHT22;6979;52.116;5.286;2023-12-29T14:15:35;15.60;99.90
13817;DHT22;6979;52.116;5.286;2023-12-29T14:18:09;15.60;99.90
13817;DHT22;6979;52.116;5.286;2023-12-29T14:20:36;15.50;99.90
13817;DHT22;6979;52.116;5.286;2023-12-29T14:23:05;15.50;99.90
13817;DHT22;6979;52.116;5.286;2023-12-29T14:25:33;15.50;99.90
13817;DHT22;6979;52.116;5.286;2023-12-29T14:28:01;15.50;99.90
13817;DHT22;6979;52.116;5.286;2023-12-29T14:30:28;15.50;99.90
13817;DHT22;6979;52.116;5.286;2023-12-29T14:33:01;15.50;99.90
13817;DHT22;6979;52.116;5.286;2023-12-29T14:35:28;15.40;99.90
13817;DHT22;6979;52.116;5.286;2023-12-29T14:37:54;15.40;99.90
13817;DHT22;6979;52.116;5.286;2023-12-29T14:40:23;15.40;99.90
13817;DHT22;6979;52.116;5.286;2023-12-29T14:42:50;15.40;99.90
13817;DHT22;6979;52.116;5.286;2023-12-29T14:45:16;15.40;99.90
13817;DHT22;6979;52.116;5.286;2023-12-29T14:47:43;15.40;99.90
13817;DHT22;6979;52.116;5.286;2023-12-29T14:50:14;15.40;99.90
13817;DHT22;6979;52.116;5.286;2023-12-29T14:52:41;15.40;99.90
13817;DHT22;6979;52.116;5.286;2023-12-29T14:55:11;15.30;99.90
13817;DHT22;6979;52.116;5.286;2023-12-29T14:57:38;15.30;99.90
13817;DHT22;6979;52.116;5.286;2023-12-29T15:00:08;15.20;99.90
13817;DHT22;6979;52.116;5.286;2023-12-29T15:02:36;15.20;99.90
13817;DHT22;6979;52.116;5.286;2023-12-29T15:05:03;15.10;99.90
13817;DHT22;6979;52.116;5.286;2023-12-29T15:07:31;15.10;99.90
13817;DHT22;6979;52.116;5.286;2023-12-29T15:09:58;15.10;99.90
13817;DHT22;6979;52.116;5.286;2023-12-29T15:12:25;15.10;99.90
13817;DHT22;6979;52.116;5.286;2023-12-29T15:14:52;15.10;99.90
13817;DHT22;6979;52.116;5.286;2023-12-29T15:17:19;15.00;99.90
13817;DHT22;6979;52.116;5.286;2023-12-29T15:19:46;15.00;99.90
13817;DHT22;6979;52.116;5.286;2023-12-29T15:22:13;14.90;99.90
13817;DHT22;6979;52.116;5.286;2023-12-29T15:24:47;14.80;99.90
13817;DHT22;6979;52.116;5.286;2023-12-29T15:27:14;14.80;99.90
13817;DHT22;6979;52.116;5.286;2023-12-29T15:29:41;14.70;99.90
13817;DHT22;6979;52.116;5.286;2023-12-29T15:32:08;14.60;99.90
13817;DHT22;6979;52.116;5.286;2023-12-29T15:34:39;14.50;99.90
13817;DHT22;6979;52.116;5.286;2023-12-29T15:37:06;14.40;99.90
13817;DHT22;6979;52.116;5.286;2023-12-29T15:39:33;14.30;99.90
13817;DHT22;6979;52.116;5.286;2023-12-29T15:42:01;14.30;99.90
13817;DHT22;6979;52.116;5.286;2023-12-29T15:44:28;14.20;99.90
13817;DHT22;6979;52.116;5.286;2023-12-29T15:46:55;14.10;99.90
13817;DHT22;6979;52.116;5.286;2023-12-29T15:49:23;14.10;99.90
13817;DHT22;6979;52.116;5.286;2023-12-29T15:51:50;14.00;99.90
13817;DHT22;6979;52.116;5.286;2023-12-29T15:54:17;13.90;99.90
13817;DHT22;6979;52.116;5.286;2023-12-29T15:56:46;13.90;99.90
13817;DHT22;6979;52.116;5.286;2023-12-29T15:59:14;13.90;99.90